sensor_id;sensor_type;location;lat;lon;timestamp;pressure;altitude;pressure_sealevel;temperature;humidity
80180;BME280;69505;52.134;5.438;2023-04-24T00:01:02;99943.03;;;8.73;93.69
80180;BME280;69505;52.134;5.438;2023-04-24T00:03:28;99934.66;;;8.68;93.71
80180;BME280;69505;52.134;5.438;2023-04-24T00:05:55;99944.25;;;8.69;94.51
80180;BME280;69505;52.134;5.438;2023-04-24T00:08:22;99945.63;;;8.63;94.66
80180;BME280;69505;52.134;5.438;2023-04-24T00:10:50;99949.94;;;8.64;94.46
80180;BME280;69505;52.134;5.438;2023-04-24T00:13:18;99963.19;;;8.64;93.96
80180;BME280;69505;52.134;5.438;2023-04-24T00:15:44;99964.16;;;8.63;94.15
80180;BME280;69505;52.134;5.438;2023-04-24T00:18:11;99962.47;;;8.62;94.34
80180;BME280;69505;52.134;5.438;2023-04-24T00:20:37;99950.22;;;8.61;93.90
80180;BME280;69505;52.134;5.438;2023-04-24T00:23:04;99959.00;;;8.62;94.40
80180;BME280;69505;52.134;5.438;2023-04-24T00:25:31;99966.09;;;8.61;94.56
80180;BME280;69505;52.134;5.438;2023-04-24T00:27:57;99980.03;;;8.63;94.97
80180;BME280;69505;52.134;5.438;2023-04-24T00:30:24;99970.28;;;8.64;94.86
80180;BME280;69505;52.134;5.438;2023-04-24T00:32:50;99974.88;;;8.62;94.28
80180;BME280;69505;52.134;5.438;2023-04-24T00:35:17;99977.53;;;8.62;94.51
80180;BME280;69505;52.134;5.438;2023-04-24T00:37:46;99960.72;;;8.51;94.43
80180;BME280;69505;52.134;5.438;2023-04-24T00:40:12;99974.66;;;8.53;94.45
80180;BME280;69505;52.134;5.438;2023-04-24T00:42:39;99967.94;;;8.49;94.39
80180;BME280;69505;52.134;5.438;2023-04-24T00:45:06;99969.88;;;8.47;94.64
80180;BME280;69505;52.134;5.438;2023-04-24T00:47:33;99966.28;;;8.48;94.51
80180;BME280;69505;52.134;5.438;2023-04-24T00:50:04;99979.50;;;8.48;94.76
80180;BME280;69505;52.134;5.438;2023-04-24T00:52:32;99974.22;;;8.48;94.61
80180;BME280;69505;52.134;5.438;2023-04-24T00:54:59;99981.06;;;8.51;94.48
80180;BME280;69505;52.134;5.438;2023-04-24T00:57:26;99975.44;;;8.44;94.76
80180;BME280;69505;52.134;5.438;2023-04-24T00:59:52;99978.91;;;8.45;94.68
80180;BME280;69505;52.134;5.438;2023-04-24T01:02:21;99984.81;;;8.48;94.69
80180;BME280;69505;52.134;5.438;2023-04-24T01:04:49;99994.41;;;8.49;94.63
80180;BME280;69505;52.134;5.438;2023-04-24T01:07:18;99996.09;;;8.50;94.80
80180;BME280;69505;52.134;5.438;2023-04-24T01:09:48;99993.47;;;8.50;95.00
80180;BME280;69505;52.134;5.438;2023-04-24T01:12:15;99992.59;;;8.50;94.87
80180;BME280;69505;52.134;5.438;2023-04-24T01:14:42;99998.03;;;8.48;94.25
80180;BME280;69505;52.134;5.438;2023-04-24T01:17:09;99997.75;;;8.51;95.17
80180;BME280;69505;52.134;5.438;2023-04-24T01:19:35;100010.06;;;8.52;94.82
80180;BME280;69505;52.134;5.438;2023-04-24T01:22:09;99996.09;;;8.50;94.89
80180;BME280;69505;52.134;5.438;2023-04-24T01:24:36;100008.09;;;8.54;94.79
80180;BME280;69505;52.134;5.438;2023-04-24T01:27:04;100002.78;;;8.54;95.09
80180;BME280;69505;52.134;5.438;2023-04-24T01:29:30;100005.72;;;8.51;95.33
80180;BME280;69505;52.134;5.438;2023-04-24T01:31:57;100012.44;;;8.56;95.30
80180;BME280;69505;52.134;5.438;2023-04-24T01:34:25;100013.16;;;8.58;95.41
80180;BME280;69505;52.134;5.438;2023-04-24T01:36:52;100009.06;;;8.53;95.25
80180;BME280;69505;52.134;5.438;2023-04-24T01:39:18;100000.53;;;8.50;95.19
80180;BME280;69505;52.134;5.438;2023-04-24T01:41:46;100011.44;;;8.57;95.63
80180;BME280;69505;52.134;5.438;2023-04-24T01:44:14;100011.34;;;8.58;95.37
80180;BME280;69505;52.134;5.438;2023-04-24T01:46:40;100010.63;;;8.56;95.17
80180;BME280;69505;52.134;5.438;2023-04-24T01:49:07;100012.03;;;8.60;95.34
80180;BME280;69505;52.134;5.438;2023-04-24T01:51:34;100014.69;;;8.60;95.42
80180;BME280;69505;52.134;5.438;2023-04-24T01:54:00;100007.59;;;8.61;94.99
80180;BME280;69505;52.134;5.438;2023-04-24T01:56:29;100018.88;;;8.63;94.70
80180;BME280;69505;52.134;5.438;2023-04-24T01:58:56;100020.59;;;8.64;95.49
80180;BME280;69505;52.134;5.438;2023-04-24T02:01:24;100017.94;;;8.64;94.99
80180;BME280;69505;52.134;5.438;2023-04-24T02:03:51;100014.19;;;8.66;95.22
80180;BME280;69505;52.134;5.438;2023-04-24T02:06:18;100017.81;;;8.65;95.08
80180;BME280;69505;52.134;5.438;2023-04-24T02:08:44;100016.00;;;8.66;95.15
80180;BME280;69505;52.134;5.438;2023-04-24T02:11:11;100012.53;;;8.65;95.21
80180;BME280;69505;52.134;5.438;2023-04-24T02:13:37;100012.53;;;8.65;95.19
80180;BME280;69505;52.134;5.438;2023-04-24T02:16:04;100016.00;;;8.66;95.47
80180;BME280;69505;52.134;5.438;2023-04-24T02:18:30;100011.22;;;8.60;95.22
80180;BME280;69505;52.134;5.438;2023-04-24T02:20:57;100010.94;;;8.63;94.99
80180;BME280;69505;52.134;5.438;2023-04-24T02:23:23;100012.63;;;8.64;95.48
80180;BME280;69505;52.134;5.438;2023-04-24T02:25:50;100019.59;;;8.65;94.83
80180;BME280;69505;52.134;5.438;2023-04-24T02:28:16;100013.59;;;8.63;94.47
80180;BME280;69505;52.134;5.438;2023-04-24T02:30:43;100014.56;;;8.62;94.69
80180;BME280;69505;52.134;5.438;2023-04-24T02:33:11;100015.53;;;8.61;95.31
80180;BME280;69505;52.134;5.438;2023-04-24T02:35:37;100010.38;;;8.59;95.23
80180;BME280;69505;52.134;5.438;2023-04-24T02:38:04;100013.84;;;8.60;95.30
80180;BME280;69505;52.134;5.438;2023-04-24T02:40:30;100014.09;;;8.57;94.43
80180;BME280;69505;52.134;5.438;2023-04-24T02:42:58;100013.38;;;8.54;94.73
80180;BME280;69505;52.134;5.438;2023-04-24T02:45:24;100019.38;;;8.57;95.06
80180;BME280;69505;52.134;5.438;2023-04-24T02:47:51;100017.00;;;8.53;95.14
80180;BME280;69505;52.134;5.438;2023-04-24T02:50:17;100018.44;;;8.58;95.12
80180;BME280;69505;52.134;5.438;2023-04-24T02:52:44;100015.91;;;8.56;95.02
80180;BME280;69505;52.134;5.438;2023-04-24T02:55:11;100013.16;;;8.58;95.30
80180;BME280;69505;52.134;5.438;2023-04-24T02:57:37;100015.78;;;8.58;95.36
80180;BME280;69505;52.134;5.438;2023-04-24T03:00:04;100014.81;;;8.59;94.85
80180;BME280;69505;52.134;5.438;2023-04-24T03:02:33;100020.00;;;8.60;94.84
80180;BME280;69505;52.134;5.438;2023-04-24T03:05:00;100017.47;;;8.59;95.16
80180;BME280;69505;52.134;5.438;2023-04-24T03:07:28;100018.16;;;8.61;94.94
80180;BME280;69505;52.134;5.438;2023-04-24T03:09:55;100006.16;;;8.57;95.39
80180;BME280;69505;52.134;5.438;2023-04-24T03:12:22;100012.03;;;8.60;95.03
80180;BME280;69505;52.134;5.438;2023-04-24T03:14:50;100012.88;;;8.61;95.13
80180;BME280;69505;52.134;5.438;2023-04-24T03:17:16;100020.09;;;8.59;95.47
80180;BME280;69505;52.134;5.438;2023-04-24T03:19:43;100016.75;;;8.57;95.44
80180;BME280;69505;52.134;5.438;2023-04-24T03:22:10;100010.50;;;8.58;95.37
80180;BME280;69505;52.134;5.438;2023-04-24T03:24:37;100007.41;;;8.52;95.13
80180;BME280;69505;52.134;5.438;2023-04-24T03:27:04;100011.44;;;8.57;95.13
80180;BME280;69505;52.134;5.438;2023-04-24T03:29:30;100013.16;;;8.58;95.15
80180;BME280;69505;52.134;5.438;2023-04-24T03:31:57;100025.53;;;8.57;95.54
80180;BME280;69505;52.134;5.438;2023-04-24T03:34:24;100021.19;;;8.56;95.42
80180;BME280;69505;52.134;5.438;2023-04-24T03:36:50;100025.41;;;8.59;95.08
80180;BME280;69505;52.134;5.438;2023-04-24T03:39:17;100022.03;;;8.57;95.70
80180;BME280;69505;52.134;5.438;2023-04-24T03:41:43;100024.56;;;8.58;95.47
80180;BME280;69505;52.134;5.438;2023-04-24T03:44:10;100022.03;;;8.57;95.52
80180;BME280;69505;52.134;5.438;2023-04-24T03:46:37;100026.63;;;8.54;95.25
80180;BME280;69505;52.134;5.438;2023-04-24T03:49:03;100019.91;;;8.50;95.25
80180;BME280;69505;52.134;5.438;2023-04-24T03:51:30;100025.66;;;8.56;95.32
80180;BME280;69505;52.134;5.438;2023-04-24T03:53:57;100026.50;;;8.56;95.27
80180;BME280;69505;52.134;5.438;2023-04-24T03:56:24;100020.50;;;8.54;95.39
80180;BME280;69505;52.134;5.438;2023-04-24T03:58:50;100025.94;;;8.52;95.26
80180;BME280;69505;52.134;5.438;2023-04-24T04:01:17;100025.78;;;8.54;95.53
80180;BME280;69505;52.134;5.438;2023-04-24T04:03:45;100029.41;;;8.53;95.54
80180;BME280;69505;52.134;5.438;2023-04-24T04:06:12;100034.56;;;8.54;95.65
80180;BME280;69505;52.134;5.438;2023-04-24T04:08:39;100036.75;;;8.49;95.34
80180;BME280;69505;52.134;5.438;2023-04-24T04:11:06;100037.84;;;8.47;94.58
80180;BME280;69505;52.134;5.438;2023-04-24T04:13:32;100047.59;;;8.46;94.88
80180;BME280;69505;52.134;5.438;2023-04-24T04:15:59;100043.50;;;8.42;94.42
80180;BME280;69505;52.134;5.438;2023-04-24T04:18:26;100041.81;;;8.41;94.69
80180;BME280;69505;52.134;5.438;2023-04-24T04:20:52;100045.41;;;8.40;94.30
80180;BME280;69505;52.134;5.438;2023-04-24T04:23:19;100048.28;;;8.37;94.53
80180;BME280;69505;52.134;5.438;2023-04-24T04:25:45;100052.47;;;8.40;94.42
80180;BME280;69505;52.134;5.438;2023-04-24T04:28:13;100053.59;;;8.37;94.74
80180;BME280;69505;52.134;5.438;2023-04-24T04:30:40;100047.44;;;8.37;95.00
80180;BME280;69505;52.134;5.438;2023-04-24T04:33:06;100055.28;;;8.38;94.75
80180;BME280;69505;52.134;5.438;2023-04-24T04:35:34;100056.00;;;8.40;94.91
80180;BME280;69505;52.134;5.438;2023-04-24T04:38:01;100062.88;;;8.43;95.44
80180;BME280;69505;52.134;5.438;2023-04-24T04:40:27;100062.75;;;8.44;95.36
80180;BME280;69505;52.134;5.438;2023-04-24T04:42:54;100065.13;;;8.47;95.17
80180;BME280;69505;52.134;5.438;2023-04-24T04:45:21;100065.84;;;8.49;95.17
80180;BME280;69505;52.134;5.438;2023-04-24T04:47:47;100074.41;;;8.53;95.49
80180;BME280;69505;52.134;5.438;2023-04-24T04:50:14;100083.16;;;8.53;95.60
80180;BME280;69505;52.134;5.438;2023-04-24T04:52:43;100079.44;;;8.56;95.40
80180;BME280;69505;52.134;5.438;2023-04-24T04:55:09;100073.41;;;8.54;95.71
80180;BME280;69505;52.134;5.438;2023-04-24T04:57:36;100076.78;;;8.56;96.02
80180;BME280;69505;52.134;5.438;2023-04-24T05:00:03;100086.16;;;8.60;95.58
80180;BME280;69505;52.134;5.438;2023-04-24T05:02:30;100094.81;;;8.62;95.42
80180;BME280;69505;52.134;5.438;2023-04-24T05:04:57;100102.66;;;8.64;95.72
80180;BME280;69505;52.134;5.438;2023-04-24T05:07:23;100096.63;;;8.62;95.25
80180;BME280;69505;52.134;5.438;2023-04-24T05:09:50;100101.66;;;8.65;95.49
80180;BME280;69505;52.134;5.438;2023-04-24T05:12:18;100097.72;;;8.59;95.60
80180;BME280;69505;52.134;5.438;2023-04-24T05:14:45;100108.16;;;8.61;95.32
80180;BME280;69505;52.134;5.438;2023-04-24T05:17:11;100106.50;;;8.60;95.44
80180;BME280;69505;52.134;5.438;2023-04-24T05:19:38;100107.22;;;8.62;95.61
80180;BME280;69505;52.134;5.438;2023-04-24T05:22:04;100111.41;;;8.64;95.46
80180;BME280;69505;52.134;5.438;2023-04-24T05:24:33;100115.63;;;8.67;95.31
80180;BME280;69505;52.134;5.438;2023-04-24T05:27:01;100124.16;;;8.70;94.78
80180;BME280;69505;52.134;5.438;2023-04-24T05:29:28;100131.00;;;8.73;94.51
80180;BME280;69505;52.134;5.438;2023-04-24T05:31:57;100131.72;;;8.75;94.68
80180;BME280;69505;52.134;5.438;2023-04-24T05:34:24;100138.13;;;8.72;95.04
80180;BME280;69505;52.134;5.438;2023-04-24T05:36:51;100142.56;;;8.72;94.71
80180;BME280;69505;52.134;5.438;2023-04-24T05:39:18;100144.63;;;8.68;94.46
80180;BME280;69505;52.134;5.438;2023-04-24T05:41:45;100146.44;;;8.68;94.85
80180;BME280;69505;52.134;5.438;2023-04-24T05:44:12;100150.50;;;8.72;94.96
80180;BME280;69505;52.134;5.438;2023-04-24T05:46:38;100165.41;;;8.73;94.70
80180;BME280;69505;52.134;5.438;2023-04-24T05:49:05;100170.72;;;8.73;95.40
80180;BME280;69505;52.134;5.438;2023-04-24T05:51:32;100162.81;;;8.62;95.13
80180;BME280;69505;52.134;5.438;2023-04-24T05:53:58;100169.19;;;8.59;95.22
80180;BME280;69505;52.134;5.438;2023-04-24T05:56:25;100168.47;;;8.57;95.32
80180;BME280;69505;52.134;5.438;2023-04-24T05:58:51;100183.63;;;8.55;95.42
80180;BME280;69505;52.134;5.438;2023-04-24T06:01:18;100186.66;;;8.50;95.20
80180;BME280;69505;52.134;5.438;2023-04-24T06:03:45;100184.47;;;8.44;95.11
80180;BME280;69505;52.134;5.438;2023-04-24T06:06:12;100192.16;;;8.47;95.23
80180;BME280;69505;52.134;5.438;2023-04-24T06:08:39;100189.72;;;8.33;94.96
80180;BME280;69505;52.134;5.438;2023-04-24T06:11:05;100201.13;;;8.33;94.72
80180;BME280;69505;52.134;5.438;2023-04-24T06:13:32;100206.69;;;8.30;95.10
80180;BME280;69505;52.134;5.438;2023-04-24T06:15:58;100210.41;;;8.28;95.76
80180;BME280;69505;52.134;5.438;2023-04-24T06:18:25;100221.13;;;8.26;95.02
80180;BME280;69505;52.134;5.438;2023-04-24T06:20:51;100211.84;;;8.21;95.40
80180;BME280;69505;52.134;5.438;2023-04-24T06:23:18;100216.91;;;8.24;94.84
80180;BME280;69505;52.134;5.438;2023-04-24T06:25:44;100220.97;;;8.17;95.07
80180;BME280;69505;52.134;5.438;2023-04-24T06:28:12;100225.31;;;8.18;94.95
80180;BME280;69505;52.134;5.438;2023-04-24T06:30:39;100238.03;;;8.12;95.16
80180;BME280;69505;52.134;5.438;2023-04-24T06:33:05;100242.84;;;8.07;95.08
80180;BME280;69505;52.134;5.438;2023-04-24T06:35:46;100250.06;;;8.05;95.59
80180;BME280;69505;52.134;5.438;2023-04-24T06:38:13;100263.16;;;8.07;95.48
80180;BME280;69505;52.134;5.438;2023-04-24T06:40:39;100250.78;;;8.07;95.37
80180;BME280;69505;52.134;5.438;2023-04-24T06:43:06;100270.03;;;8.09;95.80
80180;BME280;69505;52.134;5.438;2023-04-24T06:45:33;100278.06;;;8.08;95.77
80180;BME280;69505;52.134;5.438;2023-04-24T06:47:59;100276.28;;;8.08;96.01
80180;BME280;69505;52.134;5.438;2023-04-24T06:50:26;100280.50;;;8.11;95.25
80180;BME280;69505;52.134;5.438;2023-04-24T06:52:53;100286.63;;;8.11;95.69
80180;BME280;69505;52.134;5.438;2023-04-24T06:55:19;100304.06;;;8.14;96.06
80180;BME280;69505;52.134;5.438;2023-04-24T06:57:46;100311.25;;;8.12;95.29
80180;BME280;69505;52.134;5.438;2023-04-24T07:00:13;100312.59;;;8.18;95.91
80180;BME280;69505;52.134;5.438;2023-04-24T07:02:39;100310.06;;;8.16;95.72
80180;BME280;69505;52.134;5.438;2023-04-24T07:05:06;100311.38;;;8.10;96.00
80180;BME280;69505;52.134;5.438;2023-04-24T07:07:34;100330.00;;;8.09;95.47
80180;BME280;69505;52.134;5.438;2023-04-24T07:10:05;100326.66;;;8.07;96.10
80180;BME280;69505;52.134;5.438;2023-04-24T07:12:31;100337.44;;;8.04;95.52
80180;BME280;69505;52.134;5.438;2023-04-24T07:15:00;100331.66;;;7.99;95.34
80180;BME280;69505;52.134;5.438;2023-04-24T07:17:26;100351.09;;;7.98;94.94
80180;BME280;69505;52.134;5.438;2023-04-24T07:19:53;100365.41;;;7.95;94.73
80180;BME280;69505;52.134;5.438;2023-04-24T07:22:20;100372.59;;;7.93;94.76
80180;BME280;69505;52.134;5.438;2023-04-24T07:24:46;100375.34;;;7.91;94.73
80180;BME280;69505;52.134;5.438;2023-04-24T07:27:13;100382.78;;;7.86;94.46
80180;BME280;69505;52.134;5.438;2023-04-24T07:29:41;100384.59;;;7.86;94.59
80180;BME280;69505;52.134;5.438;2023-04-24T07:32:08;100393.38;;;7.86;95.27
80180;BME280;69505;52.134;5.438;2023-04-24T07:34:35;100401.31;;;7.86;94.50
80180;BME280;69505;52.134;5.438;2023-04-24T07:37:02;100402.88;;;7.89;95.21
80180;BME280;69505;52.134;5.438;2023-04-24T07:39:29;100414.19;;;7.91;94.97
80180;BME280;69505;52.134;5.438;2023-04-24T07:41:56;100418.00;;;7.87;94.59
80180;BME280;69505;52.134;5.438;2023-04-24T07:44:23;100431.13;;;7.88;94.67
80180;BME280;69505;52.134;5.438;2023-04-24T07:46:49;100426.19;;;7.84;94.11
80180;BME280;69505;52.134;5.438;2023-04-24T07:49:16;100431.34;;;7.85;93.42
80180;BME280;69505;52.134;5.438;2023-04-24T07:51:45;100445.41;;;7.86;93.29
80180;BME280;69505;52.134;5.438;2023-04-24T07:54:12;100445.19;;;7.89;94.86
80180;BME280;69505;52.134;5.438;2023-04-24T07:56:38;100450.59;;;7.87;94.37
80180;BME280;69505;52.134;5.438;2023-04-24T07:59:05;100444.97;;;7.92;94.08
80180;BME280;69505;52.134;5.438;2023-04-24T08:01:32;100448.56;;;7.91;94.00
80180;BME280;69505;52.134;5.438;2023-04-24T08:03:58;100451.00;;;7.94;93.78
80180;BME280;69505;52.134;5.438;2023-04-24T08:06:26;100463.53;;;8.03;94.36
80180;BME280;69505;52.134;5.438;2023-04-24T08:08:57;100463.78;;;8.00;94.46
80180;BME280;69505;52.134;5.438;2023-04-24T08:11:24;100483.97;;;8.01;94.26
80180;BME280;69505;52.134;5.438;2023-04-24T08:13:51;100479.22;;;7.93;94.81
80180;BME280;69505;52.134;5.438;2023-04-24T08:16:18;100501.13;;;7.83;93.56
80180;BME280;69505;52.134;5.438;2023-04-24T08:18:44;100506.56;;;7.81;93.49
80180;BME280;69505;52.134;5.438;2023-04-24T08:21:11;100504.22;;;7.77;93.83
80180;BME280;69505;52.134;5.438;2023-04-24T08:23:39;100524.63;;;7.75;94.18
80180;BME280;69505;52.134;5.438;2023-04-24T08:26:05;100526.75;;;7.69;94.48
80180;BME280;69505;52.134;5.438;2023-04-24T08:28:33;100514.06;;;7.62;94.37
80180;BME280;69505;52.134;5.438;2023-04-24T08:31:00;100545.69;;;7.63;94.97
80180;BME280;69505;52.134;5.438;2023-04-24T08:33:26;100548.00;;;7.55;94.40
80180;BME280;69505;52.134;5.438;2023-04-24T08:35:53;100550.56;;;7.57;94.88
80180;BME280;69505;52.134;5.438;2023-04-24T08:38:19;100563.69;;;7.58;94.72
80180;BME280;69505;52.134;5.438;2023-04-24T08:40:47;100559.31;;;7.57;94.65
80180;BME280;69505;52.134;5.438;2023-04-24T08:43:15;100558.91;;;7.63;94.51
80180;BME280;69505;52.134;5.438;2023-04-24T08:45:42;100571.47;;;7.72;94.99
80180;BME280;69505;52.134;5.438;2023-04-24T08:48:09;100556.66;;;7.83;95.09
80180;BME280;69505;52.134;5.438;2023-04-24T08:50:53;100566.38;;;7.95;94.82
80180;BME280;69505;52.134;5.438;2023-04-24T08:53:19;100579.16;;;8.01;93.78
80180;BME280;69505;52.134;5.438;2023-04-24T08:55:47;100583.28;;;8.05;93.99
80180;BME280;69505;52.134;5.438;2023-04-24T08:58:16;100587.50;;;8.08;93.07
80180;BME280;69505;52.134;5.438;2023-04-24T09:00:43;100595.13;;;8.12;93.18
80180;BME280;69505;52.134;5.438;2023-04-24T09:03:15;100590.06;;;8.09;91.52
80180;BME280;69505;52.134;5.438;2023-04-24T09:05:44;100594.53;;;7.96;89.90
80180;BME280;69505;52.134;5.438;2023-04-24T09:08:18;100606.59;;;8.00;89.84
80180;BME280;69505;52.134;5.438;2023-04-24T09:10:44;100613.44;;;8.03;90.38
80180;BME280;69505;52.134;5.438;2023-04-24T09:13:11;100615.25;;;8.02;87.54
80180;BME280;69505;52.134;5.438;2023-04-24T09:15:39;100616.75;;;8.06;88.78
80180;BME280;69505;52.134;5.438;2023-04-24T09:18:06;100614.59;;;8.11;88.90
80180;BME280;69505;52.134;5.438;2023-04-24T09:20:33;100615.84;;;8.19;88.97
80180;BME280;69505;52.134;5.438;2023-04-24T09:23:02;100620.84;;;8.23;88.28
80180;BME280;69505;52.134;5.438;2023-04-24T09:25:33;100628.75;;;8.36;88.58
80180;BME280;69505;52.134;5.438;2023-04-24T09:28:01;100640.66;;;8.54;87.74
80180;BME280;69505;52.134;5.438;2023-04-24T09:30:29;100628.31;;;8.55;86.53
80180;BME280;69505;52.134;5.438;2023-04-24T09:33:15;100632.47;;;8.70;87.21
80180;BME280;69505;52.134;5.438;2023-04-24T09:35:48;100635.94;;;9.08;86.77
80180;BME280;69505;52.134;5.438;2023-04-24T09:38:14;100633.97;;;9.34;84.42
80180;BME280;69505;52.134;5.438;2023-04-24T09:40:41;100645.09;;;9.39;84.81
80180;BME280;69505;52.134;5.438;2023-04-24T09:43:10;100650.22;;;9.29;81.95
80180;BME280;69505;52.134;5.438;2023-04-24T09:45:39;100650.22;;;9.29;83.61
80180;BME280;69505;52.134;5.438;2023-04-24T09:48:09;100659.75;;;9.67;83.86
80180;BME280;69505;52.134;5.438;2023-04-24T09:50:36;100651.16;;;9.64;81.97
80180;BME280;69505;52.134;5.438;2023-04-24T09:53:04;100663.31;;;9.55;84.47
80180;BME280;69505;52.134;5.438;2023-04-24T09:55:32;100676.97;;;9.26;79.27
80180;BME280;69505;52.134;5.438;2023-04-24T09:58:00;100690.25;;;8.89;80.86
80180;BME280;69505;52.134;5.438;2023-04-24T10:00:29;100685.78;;;8.66;81.73
80180;BME280;69505;52.134;5.438;2023-04-24T10:02:56;100695.22;;;8.57;80.46
80180;BME280;69505;52.134;5.438;2023-04-24T10:05:25;100691.72;;;8.57;80.89
80180;BME280;69505;52.134;5.438;2023-04-24T10:07:56;100688.41;;;8.66;81.46
80180;BME280;69505;52.134;5.438;2023-04-24T10:10:23;100698.84;;;8.93;80.90
80180;BME280;69505;52.134;5.438;2023-04-24T10:12:50;100704.53;;;9.00;79.34
80180;BME280;69505;52.134;5.438;2023-04-24T10:15:18;100702.16;;;9.08;81.08
80180;BME280;69505;52.134;5.438;2023-04-24T10:17:48;100703.63;;;9.12;80.63
80180;BME280;69505;52.134;5.438;2023-04-24T10:20:23;100715.47;;;9.19;83.92
80180;BME280;69505;52.134;5.438;2023-04-24T10:22:53;100710.75;;;9.11;79.36
80180;BME280;69505;52.134;5.438;2023-04-24T10:25:22;100710.00;;;9.09;78.51
80180;BME280;69505;52.134;5.438;2023-04-24T10:27:49;100739.66;;;9.14;78.63
80180;BME280;69505;52.134;5.438;2023-04-24T10:30:17;100719.25;;;9.04;77.44
80180;BME280;69505;52.134;5.438;2023-04-24T10:32:44;100717.38;;;9.17;77.22
80180;BME280;69505;52.134;5.438;2023-04-24T10:35:13;100719.25;;;9.28;78.13
80180;BME280;69505;52.134;5.438;2023-04-24T10:37:46;100719.88;;;9.55;77.47
80180;BME280;69505;52.134;5.438;2023-04-24T10:40:19;100720.72;;;9.56;77.20
80180;BME280;69505;52.134;5.438;2023-04-24T10:42:52;100718.38;;;9.87;78.00
80180;BME280;69505;52.134;5.438;2023-04-24T10:45:24;100720.50;;;10.17;74.05
80180;BME280;69505;52.134;5.438;2023-04-24T10:50:19;100731.03;;;10.41;75.39
80180;BME280;69505;52.134;5.438;2023-04-24T10:52:47;100731.28;;;10.27;76.56
80180;BME280;69505;52.134;5.438;2023-04-24T10:55:14;100754.84;;;9.96;72.85
80180;BME280;69505;52.134;5.438;2023-04-24T10:58:03;100755.84;;;9.23;75.21
80180;BME280;69505;52.134;5.438;2023-04-24T11:00:30;100755.31;;;9.30;79.42
80180;BME280;69505;52.134;5.438;2023-04-24T11:02:57;100755.75;;;9.24;78.86
80180;BME280;69505;52.134;5.438;2023-04-24T11:05:50;100757.38;;;9.14;79.27
80180;BME280;69505;52.134;5.438;2023-04-24T11:08:23;100763.16;;;9.19;80.37
80180;BME280;69505;52.134;5.438;2023-04-24T11:10:57;100758.94;;;9.17;78.25
80180;BME280;69505;52.134;5.438;2023-04-24T11:13:26;100753.38;;;8.96;77.98
80180;BME280;69505;52.134;5.438;2023-04-24T11:18:42;100775.47;;;8.70;80.88
80180;BME280;69505;52.134;5.438;2023-04-24T11:21:12;100782.56;;;8.70;82.22
80180;BME280;69505;52.134;5.438;2023-04-24T11:23:39;100798.97;;;8.49;83.59
80180;BME280;69505;52.134;5.438;2023-04-24T11:26:18;100785.63;;;8.38;83.92
80180;BME280;69505;52.134;5.438;2023-04-24T11:28:47;100796.75;;;8.56;83.16
80180;BME280;69505;52.134;5.438;2023-04-24T11:31:39;100794.81;;;8.84;81.59
80180;BME280;69505;52.134;5.438;2023-04-24T11:34:12;100803.16;;;9.16;80.18
80180;BME280;69505;52.134;5.438;2023-04-24T11:36:43;100792.00;;;9.48;79.53
80180;BME280;69505;52.134;5.438;2023-04-24T11:39:09;100791.34;;;9.92;79.46
80180;BME280;69505;52.134;5.438;2023-04-24T11:41:37;100799.31;;;10.28;78.91
80180;BME280;69505;52.134;5.438;2023-04-24T11:44:06;100786.69;;;9.96;78.75
80180;BME280;69505;52.134;5.438;2023-04-24T11:46:33;100796.03;;;9.89;79.18
80180;BME280;69505;52.134;5.438;2023-04-24T11:49:00;100797.66;;;9.91;79.32
80180;BME280;69505;52.134;5.438;2023-04-24T11:51:27;100795.50;;;10.08;78.65
80180;BME280;69505;52.134;5.438;2023-04-24T11:54:01;100796.44;;;10.31;75.26
80180;BME280;69505;52.134;5.438;2023-04-24T11:56:30;100815.91;;;10.54;73.58
80180;BME280;69505;52.134;5.438;2023-04-24T11:58:56;100809.50;;;10.34;71.61
80180;BME280;69505;52.134;5.438;2023-04-24T12:01:23;100805.16;;;10.44;71.99
80180;BME280;69505;52.134;5.438;2023-04-24T12:03:50;100817.97;;;10.50;71.46
80180;BME280;69505;52.134;5.438;2023-04-24T12:06:21;100829.34;;;10.75;74.26
80180;BME280;69505;52.134;5.438;2023-04-24T12:08:48;100816.56;;;10.80;70.76
80180;BME280;69505;52.134;5.438;2023-04-24T12:11:16;100827.13;;;10.46;70.59
80180;BME280;69505;52.134;5.438;2023-04-24T12:13:44;100830.09;;;10.30;76.26
80180;BME280;69505;52.134;5.438;2023-04-24T12:16:11;100826.78;;;10.15;73.21
80180;BME280;69505;52.134;5.438;2023-04-24T12:18:42;100838.59;;;10.35;75.04
80180;BME280;69505;52.134;5.438;2023-04-24T12:21:16;100850.66;;;10.15;72.79
80180;BME280;69505;52.134;5.438;2023-04-24T12:23:46;100847.81;;;9.94;71.69
80180;BME280;69505;52.134;5.438;2023-04-24T12:26:19;100858.09;;;9.75;72.15
80180;BME280;69505;52.134;5.438;2023-04-24T12:28:48;100858.78;;;9.53;71.67
80180;BME280;69505;52.134;5.438;2023-04-24T12:31:20;100862.00;;;9.45;72.89
80180;BME280;69505;52.134;5.438;2023-04-24T12:33:47;100857.75;;;9.43;73.88
80180;BME280;69505;52.134;5.438;2023-04-24T12:36:14;100861.88;;;9.60;73.11
80180;BME280;69505;52.134;5.438;2023-04-24T12:38:43;100866.72;;;9.90;76.42
80180;BME280;69505;52.134;5.438;2023-04-24T12:41:13;100861.41;;;9.90;71.54
80180;BME280;69505;52.134;5.438;2023-04-24T12:43:53;100875.88;;;9.86;72.85
80180;BME280;69505;52.134;5.438;2023-04-24T12:46:21;100879.94;;;9.79;71.60
80180;BME280;69505;52.134;5.438;2023-04-24T12:48:48;100881.22;;;9.73;71.25
80180;BME280;69505;52.134;5.438;2023-04-24T12:51:14;100889.22;;;9.60;69.20
80180;BME280;69505;52.134;5.438;2023-04-24T12:53:41;100891.25;;;9.57;72.18
80180;BME280;69505;52.134;5.438;2023-04-24T12:56:08;100894.63;;;9.59;71.52
80180;BME280;69505;52.134;5.438;2023-04-24T12:58:34;100887.81;;;9.67;73.65
80180;BME280;69505;52.134;5.438;2023-04-24T13:01:01;100890.41;;;9.56;71.23
80180;BME280;69505;52.134;5.438;2023-04-24T13:03:28;100905.81;;;9.38;74.44
80180;BME280;69505;52.134;5.438;2023-04-24T13:05:54;100910.41;;;9.10;76.97
80180;BME280;69505;52.134;5.438;2023-04-24T13:08:21;100910.31;;;8.86;77.47